Aviation Digital Data Service (ADDS)

Output produced by METARs form (1130 UTC 21 April 2018)
found at http://aviationweather.gov/adds/metars/
 
KBDL 211120Z 2112/2218 31005KT P6SM SKC 
     FM211900 31010G17KT P6SM SKC 
     FM212200 31009KT P6SM SKC 
     FM220500 VRB03KT P6SM SKC 
     FM221300 32004KT P6SM SKC